Time;durP1;ratioP1;P1;durP2;ratioP2;P2;SDS_P1;SDS_P2;PMS_P1;PMS_P2;Temp;Humidity;BMP_temperature;BMP_pressure;BME280_temperature;BME280_humidity;BME280_pressure;Samples;Min_cycle;Max_cycle;Signal;HPM_P1;HPM_P2
2022/03/15 00:02:08;;;;;;;6.50;4.35;;;;;;;;;;4975632;28;20440;-80
2022/03/15 00:04:33;;;;;;;8.82;4.47;;;;;;;;;;4959509;28;20599;-80
2022/03/15 00:06:59;;;;;;;6.13;4.00;;;;;;;;;;4975874;28;20046;-80
2022/03/15 00:09:24;;;;;;;7.70;3.75;;;;;;;;;;4976071;28;20405;-79
2022/03/15 00:11:52;;;;;;;6.75;4.47;;;;;;;;;;4975727;28;20469;-79
2022/03/15 00:14:18;;;;;;;5.65;3.50;;;;;;;;;;4960039;28;20038;-80
2022/03/15 00:16:43;;;;;;;7.53;4.05;;;;;;;;;;4959920;28;20038;-80
2022/03/15 00:19:09;;;;;;;6.72;3.45;;;;;;;;;;4959174;28;20034;-80
2022/03/15 00:21:35;;;;;;;6.28;3.63;;;;;;;;;;4959917;28;20111;-80
2022/03/15 00:24:00;;;;;;;7.43;3.53;;;;;;;;;;4975718;28;20045;-79
2022/03/15 00:26:28;;;;;;;5.22;3.53;;;;;;;;;;4959324;28;20121;-79
2022/03/15 00:28:53;;;;;;;5.43;3.40;;;;;;;;;;4975678;28;20038;-79
2022/03/15 00:31:19;;;;;;;6.00;3.65;;;;;;;;;;4975687;28;20124;-80
2022/03/15 00:33:45;;;;;;;7.25;3.60;;;;;;;;;;4974968;28;20121;-80
2022/03/15 00:36:10;;;;;;;5.50;3.33;;;;;;;;;;4976195;28;20113;-80
2022/03/15 00:38:36;;;;;;;4.95;3.35;;;;;;;;;;5010850;28;20508;-79
2022/03/15 00:41:01;;;;;;;5.22;3.20;;;;;;;;;;4994620;28;20459;-79
2022/03/15 00:43:27;;;;;;;7.32;3.88;;;;;;;;;;4978467;28;20165;-80
2022/03/15 00:45:55;;;;;;;7.07;3.38;;;;;;;;;;4994505;28;20041;-79
2022/03/15 00:48:20;;;;;;;4.50;2.97;;;;;;;;;;4978415;28;20034;-80
2022/03/15 00:50:46;;;;;;;6.43;3.50;;;;;;;;;;4994586;28;20034;-80
2022/03/15 00:53:11;;;;;;;5.60;3.05;;;;;;;;;;4994248;28;20044;-79
2022/03/15 00:55:37;;;;;;;4.35;3.10;;;;;;;;;;4993524;28;20046;-79
2022/03/15 00:58:03;;;;;;;6.88;3.25;;;;;;;;;;5010809;28;20060;-79
2022/03/15 01:00:31;;;;;;;4.75;3.20;;;;;;;;;;4975246;28;20045;-79
2022/03/15 01:02:56;;;;;;;7.68;3.72;;;;;;;;;;4994324;28;20036;-79
2022/03/15 01:05:22;;;;;;;6.32;3.28;;;;;;;;;;4994350;28;20046;-80
2022/03/15 01:07:47;;;;;;;6.32;3.10;;;;;;;;;;4994039;28;20042;-80
2022/03/15 01:10:13;;;;;;;4.97;3.28;;;;;;;;;;4994354;28;20397;-80
2022/03/15 01:12:38;;;;;;;5.30;2.97;;;;;;;;;;4994330;28;20122;-80
2022/03/15 01:15:06;;;;;;;5.95;3.22;;;;;;;;;;4994212;28;20041;-80
2022/03/15 01:17:32;;;;;;;4.40;3.00;;;;;;;;;;4978407;28;20048;-80
2022/03/15 01:19:58;;;;;;;5.63;3.10;;;;;;;;;;4978463;28;20042;-80
2022/03/15 01:22:23;;;;;;;5.70;3.42;;;;;;;;;;4994133;28;20573;-79
2022/03/15 01:24:49;;;;;;;4.55;2.80;;;;;;;;;;4993740;28;20045;-80
2022/03/15 01:27:15;;;;;;;6.25;3.35;;;;;;;;;;4994430;28;20034;-79
2022/03/15 01:29:41;;;;;;;4.43;2.70;;;;;;;;;;4994255;28;20412;-80
2022/03/15 01:32:07;;;;;;;5.65;3.25;;;;;;;;;;4994124;28;20034;-80
2022/03/15 01:34:33;;;;;;;5.95;2.90;;;;;;;;;;4977779;28;20458;-79
2022/03/15 01:36:58;;;;;;;5.05;3.13;;;;;;;;;;4978009;28;20041;-80
2022/03/15 01:39:24;;;;;;;6.05;3.22;;;;;;;;;;4978245;28;20037;-80
2022/03/15 01:41:49;;;;;;;7.00;3.78;;;;;;;;;;4993938;28;20065;-80
2022/03/15 01:44:19;;;;;;;5.97;3.13;;;;;;;;;;5010088;28;20049;-80
2022/03/15 01:46:46;;;;;;;4.07;2.75;;;;;;;;;;4994357;28;20113;-79
2022/03/15 01:49:11;;;;;;;5.32;3.03;;;;;;;;;;4993929;28;20066;-79
2022/03/15 01:51:40;;;;;;;5.03;2.88;;;;;;;;;;4990566;28;20041;-79
2022/03/15 01:54:06;;;;;;;5.20;3.22;;;;;;;;;;4974432;28;20038;-79
2022/03/15 01:56:33;;;;;;;5.72;4.05;;;;;;;;;;4976911;28;20044;-79
2022/03/15 01:58:59;;;;;;;4.00;2.67;;;;;;;;;;4994188;28;20499;-79
2022/03/15 02:01:24;;;;;;;5.43;3.08;;;;;;;;;;4993885;28;20049;-79
2022/03/15 02:03:50;;;;;;;6.63;3.97;;;;;;;;;;4993791;28;20038;-79
2022/03/15 02:06:15;;;;;;;4.00;3.10;;;;;;;;;;4994090;28;20451;-80
2022/03/15 02:08:41;;;;;;;5.03;2.92;;;;;;;;;;4997174;28;20065;-80
2022/03/15 02:11:08;;;;;;;4.57;2.90;;;;;;;;;;4981133;28;20412;-79
2022/03/15 02:13:34;;;;;;;5.07;2.97;;;;;;;;;;4997426;28;20104;-80
2022/03/15 02:16:00;;;;;;;5.28;2.80;;;;;;;;;;4980937;28;20448;-79
2022/03/15 02:18:26;;;;;;;5.00;2.53;;;;;;;;;;4997157;28;20088;-79
2022/03/15 02:20:55;;;;;;;6.05;3.42;;;;;;;;;;4997660;28;20029;-79
2022/03/15 02:23:20;;;;;;;5.95;2.92;;;;;;;;;;4997168;28;20125;-79
2022/03/15 02:25:46;;;;;;;4.53;2.95;;;;;;;;;;4996895;28;20169;-79
2022/03/15 02:28:13;;;;;;;4.47;2.65;;;;;;;;;;4997057;28;20112;-79
2022/03/15 02:30:39;;;;;;;5.43;2.95;;;;;;;;;;4997606;28;20068;-79
2022/03/15 02:33:04;;;;;;;4.50;3.03;;;;;;;;;;4980922;28;20077;-80
2022/03/15 02:35:29;;;;;;;6.50;3.35;;;;;;;;;;4997239;28;20385;-80
2022/03/15 02:37:55;;;;;;;4.53;2.65;;;;;;;;;;4996495;28;20073;-80
2022/03/15 02:40:21;;;;;;;4.57;2.80;;;;;;;;;;4980835;28;20076;-79
2022/03/15 02:42:46;;;;;;;5.95;3.15;;;;;;;;;;4996641;28;20042;-79
2022/03/15 02:45:14;;;;;;;6.00;2.85;;;;;;;;;;4997150;28;20080;-79
2022/03/15 02:47:43;;;;;;;5.82;2.90;;;;;;;;;;4996929;28;20034;-80
2022/03/15 02:50:09;;;;;;;5.32;2.95;;;;;;;;;;4981605;28;20034;-79
2022/03/15 02:52:34;;;;;;;4.30;3.05;;;;;;;;;;4996411;28;20557;-80
2022/03/15 02:55:00;;;;;;;4.88;3.10;;;;;;;;;;4980131;28;20132;-79
2022/03/15 02:57:27;;;;;;;5.35;2.55;;;;;;;;;;4996220;28;20120;-79
2022/03/15 02:59:55;;;;;;;5.47;2.95;;;;;;;;;;4961261;28;20041;-79
2022/03/15 03:02:20;;;;;;;5.82;2.70;;;;;;;;;;4993201;28;20421;-79
2022/03/15 03:04:46;;;;;;;4.03;2.65;;;;;;;;;;4977122;28;20042;-79
2022/03/15 03:07:12;;;;;;;3.42;2.58;;;;;;;;;;4960936;28;20069;-79
2022/03/15 03:09:37;;;;;;;4.45;2.88;;;;;;;;;;4993525;28;20145;-80
2022/03/15 03:12:03;;;;;;;4.57;2.90;;;;;;;;;;4976733;28;20038;-80
2022/03/15 03:14:29;;;;;;;5.05;2.97;;;;;;;;;;4976577;28;20571;-79
2022/03/15 03:16:54;;;;;;;5.15;2.92;;;;;;;;;;4960766;28;20038;-80
2022/03/15 03:19:20;;;;;;;4.93;2.45;;;;;;;;;;4976031;28;20497;-79
2022/03/15 03:21:48;;;;;;;4.35;2.67;;;;;;;;;;4976834;28;20460;-79
2022/03/15 03:24:17;;;;;;;4.55;2.97;;;;;;;;;;4961292;28;20038;-79
2022/03/15 03:26:43;;;;;;;4.78;3.10;;;;;;;;;;4992554;28;20073;-80
2022/03/15 03:29:09;;;;;;;3.83;2.45;;;;;;;;;;4976590;28;20112;-80
2022/03/15 03:31:38;;;;;;;4.93;2.47;;;;;;;;;;4976582;28;20046;-79
2022/03/15 03:34:04;;;;;;;4.63;2.63;;;;;;;;;;4976590;28;20034;-80
2022/03/15 03:36:31;;;;;;;4.50;2.60;;;;;;;;;;4992394;28;20085;-79
2022/03/15 03:38:57;;;;;;;5.38;3.17;;;;;;;;;;4976335;28;20523;-79
2022/03/15 03:41:24;;;;;;;4.78;3.15;;;;;;;;;;4976336;28;20038;-79
2022/03/15 03:43:49;;;;;;;6.03;3.05;;;;;;;;;;4976279;28;20770;-79
2022/03/15 03:46:16;;;;;;;4.95;2.60;;;;;;;;;;4976827;28;20038;-79
2022/03/15 03:48:42;;;;;;;4.53;2.30;;;;;;;;;;4976022;28;20026;-79
2022/03/15 03:51:08;;;;;;;4.63;2.60;;;;;;;;;;4980804;28;20026;-80
2022/03/15 03:53:34;;;;;;;5.72;2.70;;;;;;;;;;5011471;28;20042;-79
2022/03/15 03:55:59;;;;;;;4.28;2.30;;;;;;;;;;4995519;28;20535;-80
2022/03/15 03:58:25;;;;;;;4.38;2.88;;;;;;;;;;4995177;28;20045;-80
2022/03/15 04:00:50;;;;;;;4.10;2.17;;;;;;;;;;4963229;28;20030;-79
2022/03/15 04:03:17;;;;;;;5.35;2.40;;;;;;;;;;4995195;28;20496;-79
2022/03/15 04:05:45;;;;;;;4.35;2.63;;;;;;;;;;4995496;28;20045;-79
2022/03/15 04:08:12;;;;;;;3.40;2.00;;;;;;;;;;4995594;28;20036;-79
2022/03/15 04:10:37;;;;;;;4.32;2.67;;;;;;;;;;4995463;28;20544;-79
2022/03/15 04:13:04;;;;;;;4.25;2.55;;;;;;;;;;4994968;28;20034;-79
2022/03/15 04:15:31;;;;;;;4.25;2.15;;;;;;;;;;4979366;28;20534;-79
2022/03/15 04:17:56;;;;;;;4.63;2.30;;;;;;;;;;4995042;28;20038;-80
2022/03/15 04:20:22;;;;;;;3.97;2.25;;;;;;;;;;4995418;28;20091;-79
2022/03/15 04:22:47;;;;;;;4.20;2.40;;;;;;;;;;5011017;28;20065;-79
2022/03/15 04:25:14;;;;;;;3.97;2.70;;;;;;;;;;4978590;28;20041;-80
2022/03/15 04:27:39;;;;;;;3.25;2.03;;;;;;;;;;4994764;28;20042;-79
2022/03/15 04:30:05;;;;;;;3.45;1.92;;;;;;;;;;4994421;28;20125;-79
2022/03/15 04:32:31;;;;;;;4.30;2.38;;;;;;;;;;4962638;28;20032;-80
2022/03/15 04:34:57;;;;;;;4.35;2.42;;;;;;;;;;4979027;28;20049;-80
2022/03/15 04:37:23;;;;;;;4.35;2.33;;;;;;;;;;4994720;28;20416;-79
2022/03/15 04:39:49;;;;;;;4.82;2.58;;;;;;;;;;5010618;28;20042;-79
2022/03/15 04:42:14;;;;;;;4.93;2.58;;;;;;;;;;4994861;28;20038;-80
2022/03/15 04:44:40;;;;;;;3.55;2.03;;;;;;;;;;4994571;28;20069;-79
2022/03/15 04:47:05;;;;;;;3.55;2.00;;;;;;;;;;4994525;28;20042;-79
2022/03/15 04:49:31;;;;;;;4.63;2.05;;;;;;;;;;4978285;28;20405;-80
2022/03/15 04:51:57;;;;;;;3.60;2.42;;;;;;;;;;4994487;28;20030;-79
2022/03/15 04:54:23;;;;;;;3.90;2.28;;;;;;;;;;4977808;28;20412;-80
2022/03/15 04:56:48;;;;;;;4.80;2.10;;;;;;;;;;4994803;28;20041;-79
2022/03/15 04:59:13;;;;;;;4.20;2.30;;;;;;;;;;4978157;28;20048;-79
2022/03/15 05:01:39;;;;;;;3.58;2.17;;;;;;;;;;4974647;28;20112;-80
2022/03/15 05:04:04;;;;;;;4.75;1.90;;;;;;;;;;4974825;28;20057;-79
2022/03/15 05:06:30;;;;;;;4.10;2.30;;;;;;;;;;4958480;28;20536;-80
2022/03/15 05:08:55;;;;;;;3.92;2.25;;;;;;;;;;4974542;28;20034;-80
2022/03/15 05:11:21;;;;;;;3.50;2.10;;;;;;;;;;4958742;28;20066;-80
2022/03/15 05:13:47;;;;;;;3.72;2.10;;;;;;;;;;4958650;28;20416;-80
2022/03/15 05:16:18;;;;;;;3.95;1.92;;;;;;;;;;4958746;28;20042;-80
2022/03/15 05:18:47;;;;;;;3.50;1.80;;;;;;;;;;4990821;28;20088;-80
2022/03/15 05:21:16;;;;;;;3.75;2.22;;;;;;;;;;4958673;28;20046;-80
2022/03/15 05:23:41;;;;;;;4.10;2.40;;;;;;;;;;4959051;28;20038;-79
2022/03/15 05:26:07;;;;;;;4.85;2.30;;;;;;;;;;4990977;28;20031;-79
2022/03/15 05:28:32;;;;;;;3.08;1.80;;;;;;;;;;4958399;28;20046;-79
2022/03/15 05:30:58;;;;;;;3.97;1.88;;;;;;;;;;4958686;28;20042;-79
2022/03/15 05:33:23;;;;;;;3.30;2.08;;;;;;;;;;4942831;28;20038;-79
2022/03/15 05:35:49;;;;;;;3.42;2.33;;;;;;;;;;4956387;28;20030;-80
2022/03/15 05:38:14;;;;;;;3.28;1.88;;;;;;;;;;4977466;28;20099;-80
2022/03/15 05:40:40;;;;;;;4.07;1.88;;;;;;;;;;4961773;28;20026;-80
2022/03/15 05:43:05;;;;;;;5.88;2.40;;;;;;;;;;4980642;28;20041;-80
2022/03/15 05:45:31;;;;;;;4.18;1.85;;;;;;;;;;4981734;28;20519;-80
2022/03/15 05:47:56;;;;;;;3.97;1.98;;;;;;;;;;4997805;28;20049;-81
2022/03/15 05:50:22;;;;;;;4.20;1.80;;;;;;;;;;4997878;28;20057;-80
2022/03/15 05:52:48;;;;;;;4.22;2.42;;;;;;;;;;4981050;28;20407;-80
2022/03/15 05:55:13;;;;;;;3.88;2.25;;;;;;;;;;4996323;28;20038;-79
2022/03/15 05:57:39;;;;;;;4.78;2.30;;;;;;;;;;4981242;28;20129;-80
2022/03/15 06:00:06;;;;;;;5.03;2.33;;;;;;;;;;4978264;28;20116;-81
2022/03/15 06:02:32;;;;;;;3.63;2.10;;;;;;;;;;4978285;28;20046;-80
2022/03/15 06:04:59;;;;;;;3.05;1.63;;;;;;;;;;4962106;28;20077;-80
2022/03/15 06:07:27;;;;;;;4.53;2.03;;;;;;;;;;4962034;28;20121;-79
2022/03/15 06:09:54;;;;;;;4.85;1.95;;;;;;;;;;4962429;28;20412;-79
2022/03/15 06:12:21;;;;;;;3.92;2.17;;;;;;;;;;4977667;28;20061;-79
2022/03/15 06:14:47;;;;;;;4.80;1.80;;;;;;;;;;4978255;28;20031;-79
2022/03/15 06:17:13;;;;;;;3.83;1.90;;;;;;;;;;4978501;28;20092;-81
2022/03/15 06:19:38;;;;;;;3.72;1.95;;;;;;;;;;4961615;28;20038;-79
2022/03/15 06:22:04;;;;;;;4.13;1.73;;;;;;;;;;4961193;28;20452;-80
2022/03/15 06:24:29;;;;;;;4.00;2.13;;;;;;;;;;4977496;28;20042;-79
2022/03/15 06:26:55;;;;;;;3.05;1.50;;;;;;;;;;4961792;28;20042;-80
2022/03/15 06:29:20;;;;;;;15.18;3.10;;;;;;;;;;4962004;28;20489;-80
2022/03/15 06:31:46;;;;;;;11.23;2.40;;;;;;;;;;4959504;28;20042;-78
2022/03/15 06:34:12;;;;;;;3.50;1.38;;;;;;;;;;4975926;28;20042;-79
2022/03/15 06:36:37;;;;;;;5.85;2.22;;;;;;;;;;4995271;28;20069;-79
2022/03/15 06:39:03;;;;;;;7.75;1.80;;;;;;;;;;4996920;28;20113;-80
2022/03/15 06:41:29;;;;;;;7.18;1.80;;;;;;;;;;4981106;28;20037;-80
2022/03/15 06:43:55;;;;;;;5.80;2.33;;;;;;;;;;4996816;28;20052;-80
2022/03/15 06:46:20;;;;;;;6.85;2.03;;;;;;;;;;4997416;28;20038;-79
2022/03/15 06:48:46;;;;;;;7.63;2.25;;;;;;;;;;4996640;28;20033;-80
2022/03/15 06:51:12;;;;;;;9.52;1.98;;;;;;;;;;4996100;28;20037;-79
2022/03/15 06:53:37;;;;;;;8.70;2.05;;;;;;;;;;5011276;28;20034;-80
2022/03/15 06:56:03;;;;;;;10.07;3.03;;;;;;;;;;4980012;28;20053;-80
2022/03/15 06:58:28;;;;;;;10.25;3.90;;;;;;;;;;4996430;28;20422;-80
2022/03/15 07:00:55;;;;;;;13.07;5.20;;;;;;;;;;4980622;28;20042;-80
2022/03/15 07:03:21;;;;;;;13.68;5.22;;;;;;;;;;4977281;28;20030;-80
2022/03/15 07:05:46;;;;;;;10.98;5.03;;;;;;;;;;4960859;28;20073;-79
2022/03/15 07:08:12;;;;;;;11.35;4.47;;;;;;;;;;4960565;28;20046;-80
2022/03/15 07:10:37;;;;;;;10.77;4.93;;;;;;;;;;4960844;28;20038;-80
2022/03/15 07:13:03;;;;;;;12.73;4.90;;;;;;;;;;4960713;28;20036;-81
2022/03/15 07:15:28;;;;;;;13.93;4.45;;;;;;;;;;4976962;28;20038;-81
2022/03/15 07:17:55;;;;;;;9.45;5.15;;;;;;;;;;4976469;28;20042;-79
2022/03/15 07:20:21;;;;;;;15.20;4.97;;;;;;;;;;4976997;28;20109;-80
2022/03/15 07:22:46;;;;;;;13.43;4.30;;;;;;;;;;4960778;28;20108;-78
2022/03/15 07:25:12;;;;;;;11.57;4.20;;;;;;;;;;4944271;28;20501;-78
2022/03/15 07:27:37;;;;;;;12.52;4.10;;;;;;;;;;4976655;28;20066;-78
2022/03/15 07:30:04;;;;;;;9.98;3.60;;;;;;;;;;4960169;28;20034;-78
2022/03/15 07:32:29;;;;;;;11.65;3.53;;;;;;;;;;4976417;28;20041;-78
2022/03/15 07:34:54;;;;;;;9.68;3.70;;;;;;;;;;4998273;28;20077;-78
2022/03/15 07:37:20;;;;;;;12.50;4.15;;;;;;;;;;4995310;28;20392;-78
2022/03/15 07:39:46;;;;;;;9.88;3.30;;;;;;;;;;4995527;28;20408;-78
2022/03/15 07:42:11;;;;;;;10.90;3.53;;;;;;;;;;5012151;28;20034;-77
2022/03/15 07:44:37;;;;;;;8.18;3.22;;;;;;;;;;4979998;28;20116;-78
2022/03/15 07:47:03;;;;;;;7.85;4.07;;;;;;;;;;5011864;28;20045;-78
2022/03/15 07:49:28;;;;;;;7.22;2.78;;;;;;;;;;4994559;28;20046;-78
2022/03/15 07:51:53;;;;;;;12.13;3.30;;;;;;;;;;4975137;28;20488;-78
2022/03/15 07:54:19;;;;;;;9.13;3.05;;;;;;;;;;4959673;28;20046;-78
2022/03/15 07:56:44;;;;;;;17.30;4.07;;;;;;;;;;4997657;28;20381;-79
2022/03/15 07:59:10;;;;;;;30.98;6.53;;;;;;;;;;5011656;28;20038;-78
2022/03/15 08:01:36;;;;;;;29.67;6.30;;;;;;;;;;4994993;28;20459;-78
2022/03/15 08:04:01;;;;;;;13.63;4.15;;;;;;;;;;4995189;28;20116;-79
2022/03/15 08:06:27;;;;;;;25.83;5.57;;;;;;;;;;4995055;28;20084;-79
2022/03/15 08:08:57;;;;;;;25.65;4.75;;;;;;;;;;4979089;28;20124;-79
2022/03/15 08:11:25;;;;;;;28.90;5.63;;;;;;;;;;4995762;28;20045;-79
2022/03/15 08:13:53;;;;;;;29.63;4.15;;;;;;;;;;4995128;28;20064;-78
2022/03/15 08:16:19;;;;;;;25.20;5.28;;;;;;;;;;5011808;28;20522;-78
2022/03/15 08:18:44;;;;;;;24.55;4.40;;;;;;;;;;4994911;28;20121;-78
2022/03/15 08:21:10;;;;;;;19.90;3.72;;;;;;;;;;4979016;28;20053;-78
2022/03/15 08:23:36;;;;;;;20.27;4.47;;;;;;;;;;4994684;28;20041;-78
2022/03/15 08:26:01;;;;;;;15.98;3.72;;;;;;;;;;4995054;28;20038;-79
2022/03/15 08:28:28;;;;;;;19.98;3.53;;;;;;;;;;4994762;28;20034;-78
2022/03/15 08:30:54;;;;;;;13.50;3.65;;;;;;;;;;4994690;28;20069;-79
2022/03/15 08:33:20;;;;;;;20.77;3.65;;;;;;;;;;4994974;28;20037;-79
2022/03/15 08:35:45;;;;;;;13.85;3.35;;;;;;;;;;4978167;28;20592;-79
2022/03/15 08:38:11;;;;;;;18.25;3.88;;;;;;;;;;4994768;28;20037;-78
2022/03/15 08:40:37;;;;;;;13.30;3.60;;;;;;;;;;4994694;28;20037;-79
2022/03/15 08:43:02;;;;;;;12.90;3.47;;;;;;;;;;4978480;28;20033;-79
2022/03/15 08:45:27;;;;;;;10.68;3.70;;;;;;;;;;4993113;28;20517;-79
2022/03/15 08:47:53;;;;;;;11.43;3.85;;;;;;;;;;4977629;28;20066;-79
2022/03/15 08:50:19;;;;;;;16.95;4.55;;;;;;;;;;4978779;28;20046;-79
2022/03/15 08:52:45;;;;;;;14.65;4.07;;;;;;;;;;4994234;28;20048;-79
2022/03/15 08:55:11;;;;;;;16.45;4.38;;;;;;;;;;4994295;28;20046;-79
2022/03/15 08:57:37;;;;;;;9.80;3.47;;;;;;;;;;4978244;28;20034;-79
2022/03/15 09:00:05;;;;;;;10.88;3.30;;;;;;;;;;4974954;28;20045;-79
2022/03/15 09:02:30;;;;;;;17.80;4.43;;;;;;;;;;4978632;28;20091;-79
2022/03/15 09:04:56;;;;;;;11.57;3.35;;;;;;;;;;4994255;28;20404;-79
2022/03/15 09:07:21;;;;;;;8.23;2.95;;;;;;;;;;4994475;28;20029;-79
2022/03/15 09:09:47;;;;;;;8.65;3.05;;;;;;;;;;4994364;28;20041;-79
2022/03/15 09:12:12;;;;;;;9.30;3.30;;;;;;;;;;4993985;28;20404;-79
2022/03/15 09:14:38;;;;;;;7.53;2.75;;;;;;;;;;4994309;28;20108;-79
2022/03/15 09:17:05;;;;;;;12.07;2.90;;;;;;;;;;4977970;28;20030;-78
2022/03/15 09:19:31;;;;;;;12.82;4.28;;;;;;;;;;4981436;28;20045;-81
2022/03/15 09:21:57;;;;;;;86.72;12.35;;;;;;;;;;4965356;28;20039;-80
2022/03/15 09:24:22;;;;;;;57.00;9.45;;;;;;;;;;4992681;28;20523;-80
2022/03/15 09:26:48;;;;;;;29.30;7.28;;;;;;;;;;5000379;28;20040;-80
2022/03/15 09:29:13;;;;;;;33.13;7.78;;;;;;;;;;5000670;28;20033;-80
2022/03/15 09:31:39;;;;;;;23.80;5.47;;;;;;;;;;5000713;28;20064;-80
2022/03/15 09:34:04;;;;;;;20.42;4.60;;;;;;;;;;4984194;28;20124;-80
2022/03/15 09:36:30;;;;;;;23.05;5.57;;;;;;;;;;5000168;28;20407;-81
2022/03/15 09:38:55;;;;;;;18.35;5.18;;;;;;;;;;4984258;28;20124;-81
2022/03/15 09:41:21;;;;;;;18.02;5.07;;;;;;;;;;5000615;28;20042;-82
2022/03/15 09:43:47;;;;;;;14.00;4.95;;;;;;;;;;4967839;28;20034;-82
2022/03/15 09:46:13;;;;;;;10.52;3.80;;;;;;;;;;4984588;28;20030;-81
2022/03/15 09:48:38;;;;;;;13.30;4.55;;;;;;;;;;5000386;28;20480;-81
2022/03/15 09:51:07;;;;;;;10.05;3.78;;;;;;;;;;4997271;28;20033;-81
2022/03/15 09:53:36;;;;;;;11.00;4.30;;;;;;;;;;4980824;28;20137;-82
2022/03/15 09:56:02;;;;;;;9.43;3.35;;;;;;;;;;4997015;28;20524;-82
2022/03/15 09:58:27;;;;;;;11.07;2.92;;;;;;;;;;4967818;28;20030;-83
2022/03/15 10:00:54;;;;;;;8.93;3.20;;;;;;;;;;4968350;28;20048;-82
2022/03/15 10:03:19;;;;;;;7.60;2.55;;;;;;;;;;4968220;28;20451;-82
2022/03/15 10:05:45;;;;;;;7.60;3.22;;;;;;;;;;4999821;28;20041;-81
2022/03/15 10:08:15;;;;;;;10.98;5.28;;;;;;;;;;5000093;28;20416;-81
2022/03/15 10:10:41;;;;;;;19.38;12.05;;;;;;;;;;4984485;28;20062;-82
2022/03/15 10:13:06;;;;;;;29.02;19.30;;;;;;;;;;4983853;28;20030;-82
2022/03/15 10:15:32;;;;;;;31.98;21.38;;;;;;;;;;5000135;28;20100;-82
2022/03/15 10:18:04;;;;;;;34.78;19.33;;;;;;;;;;5000224;28;20034;-82
2022/03/15 10:20:31;;;;;;;29.17;19.02;;;;;;;;;;4969698;28;20088;-81
2022/03/15 10:23:00;;;;;;;27.35;19.23;;;;;;;;;;5000058;28;20069;-80
2022/03/15 10:25:27;;;;;;;26.58;17.40;;;;;;;;;;5000193;28;20064;-80
2022/03/15 10:28:00;;;;;;;24.67;16.85;;;;;;;;;;4999184;28;20050;-80
2022/03/15 10:30:26;;;;;;;24.98;15.23;;;;;;;;;;4980903;28;20034;-79
2022/03/15 10:32:52;;;;;;;23.90;15.93;;;;;;;;;;4980843;28;20041;-79
2022/03/15 10:35:22;;;;;;;23.23;15.35;;;;;;;;;;4980918;28;20049;-79
2022/03/15 10:37:50;;;;;;;21.25;13.98;;;;;;;;;;4981149;28;20180;-79
2022/03/15 10:40:16;;;;;;;23.52;13.68;;;;;;;;;;4981209;28;20046;-80
2022/03/15 10:42:42;;;;;;;22.98;13.00;;;;;;;;;;4980174;28;20081;-79
2022/03/15 10:45:21;;;;;;;17.95;11.73;;;;;;;;;;4980597;28;20022;-80
2022/03/15 10:47:55;;;;;;;17.98;11.52;;;;;;;;;;4980637;28;20053;-80
2022/03/15 10:50:21;;;;;;;19.13;10.70;;;;;;;;;;4980468;28;20042;-80
2022/03/15 10:52:47;;;;;;;20.63;11.40;;;;;;;;;;4976771;28;20479;-80
2022/03/15 10:55:15;;;;;;;23.90;12.02;;;;;;;;;;4977026;28;20129;-79
2022/03/15 10:57:47;;;;;;;19.05;11.13;;;;;;;;;;5004141;28;20044;-79
2022/03/15 11:00:14;;;;;;;;;;;;;;;;;;4997087;28;20038;-79
2022/03/15 11:02:43;;;;;;;15.77;9.55;;;;;;;;;;4993242;28;19910;-79
2022/03/15 11:05:09;;;;;;;16.40;9.57;;;;;;;;;;4976857;28;20038;-80
2022/03/15 11:07:41;;;;;;;16.45;9.68;;;;;;;;;;4993105;28;20092;-79
2022/03/15 11:10:12;;;;;;;13.73;9.27;;;;;;;;;;4976840;28;20049;-80
2022/03/15 11:12:38;;;;;;;15.25;8.38;;;;;;;;;;4996023;28;20445;-80
2022/03/15 11:15:04;;;;;;;14.80;8.68;;;;;;;;;;4996378;28;20459;-80
2022/03/15 11:17:31;;;;;;;14.45;7.57;;;;;;;;;;4996177;28;20096;-80
2022/03/15 11:19:58;;;;;;;11.75;8.32;;;;;;;;;;4995667;28;20092;-80
2022/03/15 11:22:26;;;;;;;13.10;7.57;;;;;;;;;;4980247;28;20530;-80
2022/03/15 11:25:09;;;;;;;11.68;6.97;;;;;;;;;;4995923;28;20129;-80
2022/03/15 11:27:42;;;;;;;13.27;6.88;;;;;;;;;;4980443;28;20030;-80
2022/03/15 11:30:09;;;;;;;10.32;6.32;;;;;;;;;;4979959;28;20044;-80
2022/03/15 11:32:35;;;;;;;10.77;6.20;;;;;;;;;;4979471;28;20026;-80
2022/03/15 11:35:01;;;;;;;11.70;6.43;;;;;;;;;;4976293;28;20089;-80
2022/03/15 11:37:26;;;;;;;10.82;6.15;;;;;;;;;;4995650;28;20034;-80
2022/03/15 11:39:52;;;;;;;9.13;5.60;;;;;;;;;;4978789;28;20107;-80
2022/03/15 11:42:18;;;;;;;7.93;4.85;;;;;;;;;;4979643;28;20030;-80
2022/03/15 11:45:05;;;;;;;11.38;5.53;;;;;;;;;;4979598;28;20095;-80
2022/03/15 11:47:45;;;;;;;7.78;4.90;;;;;;;;;;5012219;28;20034;-80
2022/03/15 11:50:20;;;;;;;9.73;4.93;;;;;;;;;;5012258;28;20042;-80
2022/03/15 11:52:45;;;;;;;9.68;4.43;;;;;;;;;;4975753;28;20446;-80
2022/03/15 11:55:17;;;;;;;10.45;4.82;;;;;;;;;;5007809;28;20081;-80
2022/03/15 11:57:58;;;;;;;10.38;4.78;;;;;;;;;;4995936;28;20046;-80
2022/03/15 12:00:30;;;;;;;9.38;4.80;;;;;;;;;;4980072;28;20033;-80
2022/03/15 12:02:59;;;;;;;8.55;4.43;;;;;;;;;;4992080;28;20122;-80
2022/03/15 12:05:25;;;;;;;10.25;3.80;;;;;;;;;;4975907;28;20042;-78
2022/03/15 12:08:15;;;;;;;6.10;4.03;;;;;;;;;;4991837;28;20386;-81
2022/03/15 12:10:46;;;;;;;10.27;4.53;;;;;;;;;;4961891;28;20076;-82
2022/03/15 12:13:14;;;;;;;7.65;4.10;;;;;;;;;;4959971;28;20030;-81
2022/03/15 12:15:45;;;;;;;9.23;4.72;;;;;;;;;;4976206;28;20045;-81
2022/03/15 12:21:08;;;;;;;8.13;3.83;;;;;;;;;;4991583;28;20096;-81
2022/03/15 12:23:41;;;;;;;7.43;3.53;;;;;;;;;;4974542;28;20088;-81
2022/03/15 12:26:20;;;;;;;8.68;3.92;;;;;;;;;;4960112;28;20074;-81
2022/03/15 12:29:04;;;;;;;8.88;3.95;;;;;;;;;;4959506;28;20034;-81
2022/03/15 12:31:33;;;;;;;7.40;4.07;;;;;;;;;;4959500;28;20472;-81
2022/03/15 12:34:03;;;;;;;6.40;3.53;;;;;;;;;;4959269;28;20027;-81
2022/03/15 12:36:51;;;;;;;8.18;3.90;;;;;;;;;;4978803;28;20408;-81
2022/03/15 12:39:21;;;;;;;8.15;3.22;;;;;;;;;;4978760;28;20119;-81
2022/03/15 12:41:48;;;;;;;11.15;3.67;;;;;;;;;;4994690;28;20080;-80
2022/03/15 12:44:14;;;;;;;6.63;3.60;;;;;;;;;;4978576;28;20029;-81
2022/03/15 12:46:40;;;;;;;6.68;2.75;;;;;;;;;;4995019;28;20164;-81
2022/03/15 12:49:11;;;;;;;5.55;3.03;;;;;;;;;;4994422;28;20036;-80
2022/03/15 12:51:44;;;;;;;5.78;2.50;;;;;;;;;;4973968;28;20038;-81
2022/03/15 12:54:12;;;;;;;6.85;3.17;;;;;;;;;;4974615;28;20034;-81
2022/03/15 12:56:47;;;;;;;6.50;2.83;;;;;;;;;;4978371;28;20511;-80
2022/03/15 12:59:23;;;;;;;8.70;3.28;;;;;;;;;;5010785;28;20033;-80
2022/03/15 13:01:49;;;;;;;6.90;2.80;;;;;;;;;;4995068;28;20548;-81
2022/03/15 13:04:15;;;;;;;5.72;2.65;;;;;;;;;;4994668;28;20038;-81
2022/03/15 13:06:42;;;;;;;5.70;2.58;;;;;;;;;;4977891;28;20487;-81
2022/03/15 13:09:08;;;;;;;5.25;2.42;;;;;;;;;;4994673;28;20061;-81
2022/03/15 13:11:43;;;;;;;4.47;2.47;;;;;;;;;;4994374;28;20125;-80
2022/03/15 13:14:08;;;;;;;4.68;2.35;;;;;;;;;;4978315;28;20026;-80
2022/03/15 13:16:35;;;;;;;6.03;2.78;;;;;;;;;;4994413;28;20052;-81
2022/03/15 13:19:01;;;;;;;4.28;2.40;;;;;;;;;;4994217;28;20030;-80
2022/03/15 13:21:29;;;;;;;4.57;2.17;;;;;;;;;;4993777;28;20571;-80
2022/03/15 13:23:57;;;;;;;4.22;1.92;;;;;;;;;;4994236;28;20463;-80
2022/03/15 13:26:23;;;;;;;4.00;1.75;;;;;;;;;;4994461;28;20052;-80
2022/03/15 13:28:50;;;;;;;3.92;2.03;;;;;;;;;;4978177;28;20034;-80
2022/03/15 13:31:17;;;;;;;3.85;2.13;;;;;;;;;;4994412;28;20091;-80
2022/03/15 13:33:45;;;;;;;5.47;2.13;;;;;;;;;;4994238;28;20475;-80
2022/03/15 13:36:18;;;;;;;3.33;1.90;;;;;;;;;;4977633;28;20084;-80
2022/03/15 13:38:48;;;;;;;3.17;1.63;;;;;;;;;;4978057;28;20531;-80
2022/03/15 13:41:15;;;;;;;3.92;1.70;;;;;;;;;;5010146;28;20464;-80
2022/03/15 13:43:44;;;;;;;3.35;1.63;;;;;;;;;;4978166;28;20096;-80
2022/03/15 13:46:13;;;;;;;4.20;2.00;;;;;;;;;;4994577;28;20109;-80
2022/03/15 13:48:39;;;;;;;3.30;1.50;;;;;;;;;;5010512;28;20038;-80
2022/03/15 13:51:10;;;;;;;3.83;1.70;;;;;;;;;;4994150;28;20385;-79
2022/03/15 13:53:41;;;;;;;3.17;1.50;;;;;;;;;;5009830;28;20048;-80
2022/03/15 13:56:17;;;;;;;2.70;1.23;;;;;;;;;;5010129;28;20563;-80
2022/03/15 13:58:57;;;;;;;3.17;1.50;;;;;;;;;;4978261;28;20161;-80
2022/03/15 14:01:23;;;;;;;3.85;1.58;;;;;;;;;;4994369;28;20504;-80
2022/03/15 14:03:48;;;;;;;3.30;1.85;;;;;;;;;;4980159;28;20037;-79
2022/03/15 14:06:14;;;;;;;3.78;1.50;;;;;;;;;;4997354;28;20041;-80
2022/03/15 14:08:48;;;;;;;3.05;1.45;;;;;;;;;;4981428;28;20130;-80
2022/03/15 14:11:14;;;;;;;4.05;1.45;;;;;;;;;;4981629;28;20065;-80
2022/03/15 14:13:56;;;;;;;2.90;1.30;;;;;;;;;;4981366;28;20041;-80
2022/03/15 14:16:31;;;;;;;2.35;1.10;;;;;;;;;;4982146;28;20049;-80
2022/03/15 14:19:00;;;;;;;2.88;1.30;;;;;;;;;;4980913;28;20037;-80
2022/03/15 14:21:26;;;;;;;3.42;0.98;;;;;;;;;;4997210;28;20045;-80
2022/03/15 14:23:55;;;;;;;3.83;1.75;;;;;;;;;;4997038;28;20061;-80
2022/03/15 14:26:27;;;;;;;2.60;1.23;;;;;;;;;;4981308;28;20088;-80
2022/03/15 14:28:58;;;;;;;2.75;1.13;;;;;;;;;;4997791;28;20066;-80
2022/03/15 14:31:30;;;;;;;1.75;0.93;;;;;;;;;;4981462;28;20113;-80
2022/03/15 14:34:00;;;;;;;2.28;1.38;;;;;;;;;;4996457;28;20034;-80
2022/03/15 14:36:31;;;;;;;2.30;1.10;;;;;;;;;;4965057;28;20080;-80
2022/03/15 14:38:57;;;;;;;2.45;0.93;;;;;;;;;;4997303;28;20038;-80
2022/03/15 14:41:23;;;;;;;2.28;1.00;;;;;;;;;;4997135;28;20046;-80